Time;durP1;ratioP1;P1;durP2;ratioP2;P2;SDS_P1;SDS_P2;PMS_P1;PMS_P2;Temp;Humidity;BMP_temperature;BMP_pressure;BME280_temperature;BME280_humidity;BME280_pressure;Samples;Min_cycle;Max_cycle;Signal;HPM_P1;HPM_P2
2022/10/26 00:00:50;;;;;;;44.33;23.83;;;;;;;;;;5015138;28;20033;-62
2022/10/26 00:03:16;;;;;;;72.43;35.93;;;;;;;;;;5017666;28;20498;-62
2022/10/26 00:05:42;;;;;;;80.37;38.50;;;;;;;;;;5014923;28;20466;-62
2022/10/26 00:08:09;;;;;;;150.07;77.03;;;;;;;;;;5018372;28;20045;-62
2022/10/26 00:10:36;;;;;;;174.47;85.53;;;;;;;;;;5015062;28;20092;-63
2022/10/26 00:13:02;;;;;;;154.37;81.13;;;;;;;;;;5016418;28;20046;-62
2022/10/26 00:15:29;;;;;;;168.50;81.40;;;;;;;;;;5012642;28;20049;-62
2022/10/26 00:17:55;;;;;;;154.80;80.67;;;;;;;;;;5022060;28;20049;-62
2022/10/26 00:20:21;;;;;;;210.20;87.83;;;;;;;;;;5019171;28;20053;-62
2022/10/26 00:22:47;;;;;;;164.50;85.33;;;;;;;;;;5019576;28;20062;-62
2022/10/26 00:25:13;;;;;;;171.53;90.57;;;;;;;;;;5021456;28;20682;-62
2022/10/26 00:27:39;;;;;;;149.00;81.83;;;;;;;;;;5019737;28;20049;-62
2022/10/26 00:30:06;;;;;;;151.47;81.33;;;;;;;;;;5017399;28;20054;-62
2022/10/26 00:32:33;;;;;;;95.60;56.03;;;;;;;;;;5019327;28;20096;-62
2022/10/26 00:34:59;;;;;;;113.27;60.30;;;;;;;;;;5019023;28;20054;-62
2022/10/26 00:37:25;;;;;;;79.60;44.23;;;;;;;;;;5021335;28;20504;-62
2022/10/26 00:39:51;;;;;;;89.80;45.87;;;;;;;;;;5019305;28;20096;-62
2022/10/26 00:42:19;;;;;;;79.80;40.53;;;;;;;;;;5021393;28;20087;-62
2022/10/26 00:44:45;;;;;;;81.97;38.77;;;;;;;;;;5018829;28;20045;-63
2022/10/26 00:47:12;;;;;;;71.47;34.57;;;;;;;;;;5018006;28;20868;-63
2022/10/26 00:49:38;;;;;;;49.40;29.07;;;;;;;;;;5020459;28;20064;-62
2022/10/26 00:52:06;;;;;;;61.73;29.87;;;;;;;;;;5020854;28;20045;-63
2022/10/26 00:54:32;;;;;;;56.53;29.97;;;;;;;;;;5022292;28;20160;-62
2022/10/26 00:56:58;;;;;;;50.73;28.20;;;;;;;;;;5019027;28;20495;-63
2022/10/26 00:59:24;;;;;;;58.00;28.23;;;;;;;;;;5022439;28;20042;-62
2022/10/26 01:01:50;;;;;;;70.57;30.80;;;;;;;;;;5017152;28;20042;-62
2022/10/26 01:04:17;;;;;;;59.37;29.03;;;;;;;;;;5024196;28;20080;-62
2022/10/26 01:06:44;;;;;;;49.83;26.10;;;;;;;;;;5021179;28;20057;-62
2022/10/26 01:09:11;;;;;;;46.43;25.63;;;;;;;;;;5020228;28;20042;-62
2022/10/26 01:11:37;;;;;;;48.73;25.43;;;;;;;;;;5018773;28;20099;-62
2022/10/26 01:14:05;;;;;;;65.13;30.00;;;;;;;;;;5022617;28;20045;-62
2022/10/26 01:16:50;;;;;;;62.97;29.27;;;;;;;;;;5017187;28;20049;-62
2022/10/26 01:19:41;;;;;;;51.93;27.23;;;;;;;;;;5019795;28;20523;-62
2022/10/26 01:22:14;;;;;;;53.23;26.43;;;;;;;;;;5021957;28;20152;-62
2022/10/26 01:24:43;;;;;;;61.03;29.87;;;;;;;;;;5031160;28;20049;-62
2022/10/26 01:27:08;;;;;;;46.43;25.23;;;;;;;;;;5030920;28;20045;-62
2022/10/26 01:29:34;;;;;;;46.57;25.93;;;;;;;;;;5031050;28;20053;-62
2022/10/26 01:32:07;;;;;;;54.93;26.97;;;;;;;;;;5031327;28;20045;-62
2022/10/26 01:34:35;;;;;;;58.70;27.93;;;;;;;;;;5029602;28;20058;-62
2022/10/26 01:37:13;;;;;;;59.73;29.07;;;;;;;;;;5013283;28;20588;-62
2022/10/26 01:39:44;;;;;;;50.87;27.73;;;;;;;;;;5011370;28;20132;-62
2022/10/26 01:42:11;;;;;;;54.90;28.93;;;;;;;;;;5011306;28;20444;-62
2022/10/26 01:44:41;;;;;;;67.23;30.70;;;;;;;;;;5009849;28;20074;-62
2022/10/26 01:47:08;;;;;;;69.47;32.43;;;;;;;;;;5010874;28;20049;-62
2022/10/26 01:49:39;;;;;;;48.23;24.60;;;;;;;;;;5011269;28;20052;-62
2022/10/26 01:52:05;;;;;;;51.00;27.53;;;;;;;;;;5011239;28;20053;-62
2022/10/26 01:54:35;;;;;;;80.03;33.40;;;;;;;;;;5011050;28;20142;-62
2022/10/26 01:57:02;;;;;;;57.07;29.13;;;;;;;;;;5011095;28;20124;-62
2022/10/26 01:59:37;;;;;;;56.67;27.97;;;;;;;;;;5017198;28;20042;-62
2022/10/26 02:02:05;;;;;;;46.13;26.37;;;;;;;;;;5030056;28;20507;-62
2022/10/26 02:04:47;;;;;;;56.33;29.50;;;;;;;;;;5030103;28;20050;-62
2022/10/26 02:07:36;;;;;;;43.67;24.80;;;;;;;;;;5010651;28;20077;-62
2022/10/26 02:10:11;;;;;;;54.43;25.70;;;;;;;;;;4974055;28;20504;-62
2022/10/26 02:12:47;;;;;;;51.73;23.73;;;;;;;;;;5010986;28;20038;-62
2022/10/26 02:15:17;;;;;;;48.07;24.73;;;;;;;;;;5028026;28;20045;-62
2022/10/26 02:17:46;;;;;;;47.73;24.73;;;;;;;;;;5030761;28;20037;-63
2022/10/26 02:20:22;;;;;;;47.90;25.77;;;;;;;;;;5030528;28;20467;-62
2022/10/26 02:22:50;;;;;;;34.40;20.97;;;;;;;;;;5030381;28;20056;-62
2022/10/26 02:25:18;;;;;;;55.77;28.10;;;;;;;;;;5030165;28;20072;-62
2022/10/26 02:27:47;;;;;;;52.17;25.77;;;;;;;;;;5029185;28;20407;-63
2022/10/26 02:30:13;;;;;;;46.30;23.30;;;;;;;;;;5029555;28;20574;-62
2022/10/26 02:32:42;;;;;;;42.40;22.30;;;;;;;;;;5028609;28;20464;-62
2022/10/26 02:35:09;;;;;;;41.43;22.50;;;;;;;;;;5028809;28;20064;-63
2022/10/26 02:37:36;;;;;;;49.13;23.13;;;;;;;;;;5009719;28;20500;-62
2022/10/26 02:40:04;;;;;;;47.07;24.17;;;;;;;;;;5009568;28;20061;-62
2022/10/26 02:42:30;;;;;;;39.77;21.83;;;;;;;;;;5010218;28;20045;-63
2022/10/26 02:45:02;;;;;;;44.30;23.23;;;;;;;;;;5009961;28;20057;-63
2022/10/26 02:47:28;;;;;;;55.00;24.27;;;;;;;;;;5009755;28;20057;-62
2022/10/26 02:49:54;;;;;;;41.63;23.13;;;;;;;;;;5010013;28;20049;-62
2022/10/26 02:52:20;;;;;;;39.07;22.87;;;;;;;;;;5009585;28;20057;-62
2022/10/26 02:54:54;;;;;;;43.03;23.90;;;;;;;;;;5010307;28;20050;-62
2022/10/26 02:57:24;;;;;;;37.90;23.43;;;;;;;;;;5009849;28;20053;-62
2022/10/26 02:59:50;;;;;;;46.23;23.90;;;;;;;;;;5018354;28;20053;-62
2022/10/26 03:02:18;;;;;;;45.57;25.07;;;;;;;;;;5028857;28;20045;-63
2022/10/26 03:04:44;;;;;;;42.37;22.80;;;;;;;;;;5029640;28;20183;-62
2022/10/26 03:07:10;;;;;;;52.30;26.97;;;;;;;;;;5029176;28;20052;-62
2022/10/26 03:09:36;;;;;;;39.90;22.90;;;;;;;;;;5029422;28;20041;-63
2022/10/26 03:12:02;;;;;;;42.53;23.63;;;;;;;;;;5029671;28;20470;-62
2022/10/26 03:14:28;;;;;;;48.00;25.13;;;;;;;;;;5029259;28;20601;-63
2022/10/26 03:16:54;;;;;;;43.87;22.90;;;;;;;;;;5029127;28;20397;-62
2022/10/26 03:19:20;;;;;;;45.07;25.10;;;;;;;;;;5029168;28;20099;-62
2022/10/26 03:21:47;;;;;;;44.03;24.30;;;;;;;;;;5029168;28;20049;-62
2022/10/26 03:24:13;;;;;;;45.83;25.80;;;;;;;;;;5028418;28;20049;-62
2022/10/26 03:26:39;;;;;;;43.00;23.50;;;;;;;;;;5028625;28;20085;-62
2022/10/26 03:29:05;;;;;;;54.33;26.87;;;;;;;;;;5029019;28;20100;-62
2022/10/26 03:31:31;;;;;;;45.83;26.77;;;;;;;;;;5026979;28;20745;-62
2022/10/26 03:33:57;;;;;;;43.90;25.60;;;;;;;;;;5029269;28;20416;-62
2022/10/26 03:36:23;;;;;;;45.60;24.57;;;;;;;;;;5017296;28;20144;-63
2022/10/26 03:38:49;;;;;;;56.93;30.00;;;;;;;;;;5008991;28;20058;-62
2022/10/26 03:41:15;;;;;;;47.97;26.57;;;;;;;;;;5009312;28;20049;-62
2022/10/26 03:43:41;;;;;;;42.53;25.20;;;;;;;;;;5009089;28;20056;-63
2022/10/26 03:46:07;;;;;;;44.40;25.07;;;;;;;;;;5007903;28;20096;-63
2022/10/26 03:48:33;;;;;;;54.33;27.97;;;;;;;;;;5009069;28;20037;-63
2022/10/26 03:50:59;;;;;;;45.73;25.97;;;;;;;;;;5009024;28;20076;-62
2022/10/26 03:53:26;;;;;;;46.63;26.10;;;;;;;;;;5008507;28;20416;-62
2022/10/26 03:55:52;;;;;;;48.70;25.67;;;;;;;;;;5008175;28;20136;-62
2022/10/26 03:58:18;;;;;;;56.87;28.43;;;;;;;;;;5008995;28;20842;-62
2022/10/26 04:00:44;;;;;;;53.37;28.57;;;;;;;;;;5023153;28;20053;-63
2022/10/26 04:03:10;;;;;;;47.37;27.33;;;;;;;;;;5028758;28;20088;-63
2022/10/26 04:05:36;;;;;;;56.87;28.67;;;;;;;;;;5028919;28;20054;-63
2022/10/26 04:08:02;;;;;;;49.17;27.97;;;;;;;;;;5027991;28;20065;-63
2022/10/26 04:10:28;;;;;;;51.33;29.03;;;;;;;;;;5028525;28;20053;-62
2022/10/26 04:12:55;;;;;;;50.43;29.27;;;;;;;;;;5028682;28;20053;-62
2022/10/26 04:15:21;;;;;;;50.20;29.13;;;;;;;;;;5028694;28;20099;-63
2022/10/26 04:17:47;;;;;;;53.77;30.77;;;;;;;;;;5028407;28;20050;-62
2022/10/26 04:20:13;;;;;;;63.70;31.57;;;;;;;;;;5028130;28;20080;-63
2022/10/26 04:22:39;;;;;;;58.67;31.30;;;;;;;;;;5028869;28;20060;-63
2022/10/26 04:25:06;;;;;;;52.60;27.13;;;;;;;;;;5008781;28;20049;-62
2022/10/26 04:27:32;;;;;;;66.00;31.43;;;;;;;;;;5008884;28;20096;-63
2022/10/26 04:29:58;;;;;;;58.13;31.17;;;;;;;;;;5008242;28;20045;-63
2022/10/26 04:32:24;;;;;;;55.10;29.73;;;;;;;;;;5008725;28;20583;-62
2022/10/26 04:34:53;;;;;;;45.97;27.73;;;;;;;;;;5008187;28;20065;-62
2022/10/26 04:37:19;;;;;;;61.83;30.30;;;;;;;;;;5008936;28;20423;-62
2022/10/26 04:39:45;;;;;;;57.07;28.97;;;;;;;;;;5008640;28;20064;-63
2022/10/26 04:42:11;;;;;;;54.60;28.43;;;;;;;;;;5008577;28;20074;-62
2022/10/26 04:44:37;;;;;;;51.70;28.07;;;;;;;;;;5008716;28;20050;-63
2022/10/26 04:47:03;;;;;;;52.57;28.23;;;;;;;;;;5008497;28;20058;-62
2022/10/26 04:49:29;;;;;;;44.03;24.60;;;;;;;;;;5009137;28;20065;-62
2022/10/26 04:51:55;;;;;;;61.50;30.47;;;;;;;;;;5008691;28;20148;-63
2022/10/26 04:54:21;;;;;;;48.13;25.97;;;;;;;;;;5021283;28;20041;-62
2022/10/26 04:56:47;;;;;;;58.40;28.80;;;;;;;;;;5028046;28;20511;-62
2022/10/26 04:59:14;;;;;;;45.97;24.93;;;;;;;;;;5025151;28;20054;-63
2022/10/26 05:01:40;;;;;;;44.30;25.93;;;;;;;;;;5016631;28;20061;-63
2022/10/26 05:04:06;;;;;;;41.63;23.10;;;;;;;;;;5017672;28;20058;-63
2022/10/26 05:06:32;;;;;;;46.23;25.57;;;;;;;;;;5012369;28;20060;-62
2022/10/26 05:08:58;;;;;;;40.30;22.43;;;;;;;;;;5013213;28;20041;-63
2022/10/26 05:11:24;;;;;;;37.20;22.10;;;;;;;;;;5022768;28;20558;-63
2022/10/26 05:13:50;;;;;;;45.73;24.87;;;;;;;;;;5012157;28;20108;-63
2022/10/26 05:16:16;;;;;;;38.17;21.83;;;;;;;;;;5011899;28;20557;-62
2022/10/26 05:18:42;;;;;;;45.10;24.33;;;;;;;;;;5018858;28;20042;-62
2022/10/26 05:21:08;;;;;;;38.33;22.10;;;;;;;;;;5011955;28;20052;-62
2022/10/26 05:23:34;;;;;;;46.67;23.97;;;;;;;;;;5011471;28;20780;-62
2022/10/26 05:26:00;;;;;;;40.70;23.57;;;;;;;;;;5011680;28;20050;-62
2022/10/26 05:28:26;;;;;;;34.93;20.63;;;;;;;;;;5025712;28;20128;-62
2022/10/26 05:30:52;;;;;;;36.40;22.63;;;;;;;;;;5018883;28;20934;-63
2022/10/26 05:33:18;;;;;;;40.63;22.20;;;;;;;;;;5017030;28;20530;-62
2022/10/26 05:35:44;;;;;;;35.80;22.47;;;;;;;;;;5028748;28;20066;-62
2022/10/26 05:38:13;;;;;;;37.93;23.07;;;;;;;;;;5011606;28;20057;-62
2022/10/26 05:40:46;;;;;;;40.43;21.50;;;;;;;;;;5026494;28;20487;-62
2022/10/26 05:43:12;;;;;;;43.63;22.88;;;;;;;;;;5031249;28;20046;-62
2022/10/26 05:45:38;;;;;;;30.90;19.43;;;;;;;;;;5031174;28;20411;-62
2022/10/26 05:48:05;;;;;;;38.83;20.33;;;;;;;;;;5031044;28;20048;-62
2022/10/26 05:50:31;;;;;;;31.13;19.30;;;;;;;;;;5027845;28;20132;-62
2022/10/26 05:52:57;;;;;;;28.73;18.13;;;;;;;;;;5031357;28;20132;-62
2022/10/26 05:55:23;;;;;;;30.53;18.53;;;;;;;;;;5023727;28;20048;-62
2022/10/26 05:57:49;;;;;;;31.47;17.47;;;;;;;;;;5020782;28;20049;-63
2022/10/26 06:00:16;;;;;;;35.27;18.67;;;;;;;;;;5024276;28;20085;-62
2022/10/26 06:02:45;;;;;;;29.40;17.83;;;;;;;;;;5011506;28;20049;-62
2022/10/26 06:05:16;;;;;;;31.23;18.07;;;;;;;;;;5010723;28;20460;-62
2022/10/26 06:07:43;;;;;;;34.43;18.67;;;;;;;;;;5010879;28;20651;-62
2022/10/26 06:10:11;;;;;;;33.30;19.03;;;;;;;;;;5018770;28;20728;-63
2022/10/26 06:12:37;;;;;;;38.57;17.73;;;;;;;;;;5010548;28;20056;-63
2022/10/26 06:15:03;;;;;;;36.73;18.40;;;;;;;;;;5009483;28;20045;-62
2022/10/26 06:17:38;;;;;;;31.60;16.60;;;;;;;;;;5010699;28;20104;-63
2022/10/26 06:20:24;;;;;;;33.13;16.67;;;;;;;;;;5010426;28;20092;-62
2022/10/26 06:22:59;;;;;;;30.73;18.00;;;;;;;;;;5010603;28;20452;-63
2022/10/26 06:25:35;;;;;;;32.20;17.10;;;;;;;;;;5008888;28;20550;-63
2022/10/26 06:28:05;;;;;;;26.70;15.77;;;;;;;;;;5009839;28;20054;-63
2022/10/26 06:30:32;;;;;;;26.70;16.80;;;;;;;;;;5010608;28;20057;-63
2022/10/26 06:33:00;;;;;;;23.23;15.70;;;;;;;;;;5010103;28;20127;-63
2022/10/26 06:35:29;;;;;;;27.13;16.60;;;;;;;;;;5009311;28;20794;-63
2022/10/26 06:37:56;;;;;;;29.63;17.43;;;;;;;;;;5009912;28;20561;-62
2022/10/26 06:40:22;;;;;;;30.40;15.80;;;;;;;;;;5009564;28;20056;-63
2022/10/26 06:42:49;;;;;;;26.10;16.03;;;;;;;;;;5009736;28;20108;-62
2022/10/26 06:45:15;;;;;;;24.60;14.13;;;;;;;;;;5009766;28;20057;-62
2022/10/26 06:47:41;;;;;;;31.07;16.47;;;;;;;;;;5009536;28;20042;-62
2022/10/26 06:50:19;;;;;;;26.47;14.87;;;;;;;;;;5009513;28;20330;-63
2022/10/26 06:52:54;;;;;;;26.63;14.17;;;;;;;;;;5009559;28;20618;-62
2022/10/26 06:55:20;;;;;;;23.33;14.77;;;;;;;;;;5015816;28;20155;-63
2022/10/26 06:57:46;;;;;;;24.20;13.67;;;;;;;;;;5028977;28;20195;-63
2022/10/26 07:00:24;;;;;;;23.43;13.77;;;;;;;;;;5029071;28;20530;-62
2022/10/26 07:02:50;;;;;;;27.27;14.43;;;;;;;;;;5029056;28;20104;-63
2022/10/26 07:05:16;;;;;;;22.10;12.93;;;;;;;;;;5029039;28;20041;-62
2022/10/26 07:07:44;;;;;;;20.33;13.07;;;;;;;;;;5028839;28;20042;-62
2022/10/26 07:10:11;;;;;;;24.37;13.77;;;;;;;;;;5029101;28;20052;-63
2022/10/26 07:12:37;;;;;;;21.93;13.20;;;;;;;;;;5029335;28;20052;-63
2022/10/26 07:15:04;;;;;;;21.73;12.53;;;;;;;;;;5029047;28;20124;-63
2022/10/26 07:17:30;;;;;;;24.57;12.57;;;;;;;;;;5028804;28;20156;-62
2022/10/26 07:19:56;;;;;;;23.63;12.73;;;;;;;;;;5028496;28;20575;-63
2022/10/26 07:22:24;;;;;;;21.37;13.40;;;;;;;;;;5028683;28;20053;-62
2022/10/26 07:24:50;;;;;;;20.43;12.37;;;;;;;;;;5028652;28;20236;-62
2022/10/26 07:27:18;;;;;;;20.30;12.10;;;;;;;;;;5028442;28;20480;-63
2022/10/26 07:29:44;;;;;;;18.97;11.93;;;;;;;;;;5028867;28;20041;-63
2022/10/26 07:32:10;;;;;;;18.57;11.67;;;;;;;;;;5027430;28;20958;-63
2022/10/26 07:34:36;;;;;;;18.73;11.00;;;;;;;;;;5028436;28;20053;-63
2022/10/26 07:37:02;;;;;;;16.63;11.80;;;;;;;;;;5028548;28;20132;-63
2022/10/26 07:39:31;;;;;;;19.43;12.13;;;;;;;;;;5028406;28;20050;-62
2022/10/26 07:41:57;;;;;;;19.27;11.33;;;;;;;;;;5027257;28;20416;-63
2022/10/26 07:44:23;;;;;;;16.47;10.97;;;;;;;;;;5028453;28;20037;-63
2022/10/26 07:46:50;;;;;;;23.77;11.27;;;;;;;;;;5028047;28;20476;-62
2022/10/26 07:49:17;;;;;;;15.57;10.50;;;;;;;;;;5028308;28;20419;-62
2022/10/26 07:51:43;;;;;;;17.60;10.97;;;;;;;;;;5028824;28;20050;-63
2022/10/26 07:54:09;;;;;;;18.43;10.10;;;;;;;;;;5028501;28;20045;-62
2022/10/26 07:56:35;;;;;;;18.87;9.33;;;;;;;;;;5028374;28;20191;-62
2022/10/26 07:59:01;;;;;;;12.33;8.67;;;;;;;;;;5027746;28;20450;-63
2022/10/26 08:01:27;;;;;;;12.57;8.60;;;;;;;;;;5028529;28;20045;-63
2022/10/26 08:03:54;;;;;;;10.57;7.83;;;;;;;;;;5028421;28;20111;-62
2022/10/26 08:06:21;;;;;;;14.53;8.17;;;;;;;;;;5028135;28;20136;-63
2022/10/26 08:08:47;;;;;;;14.63;8.70;;;;;;;;;;5028071;28;20056;-63
2022/10/26 08:11:13;;;;;;;15.17;7.23;;;;;;;;;;5028180;28;20072;-63
2022/10/26 08:13:39;;;;;;;11.00;7.27;;;;;;;;;;5026694;28;20081;-63
2022/10/26 08:16:05;;;;;;;10.17;6.07;;;;;;;;;;5028292;28;20384;-62
2022/10/26 08:18:31;;;;;;;11.60;6.27;;;;;;;;;;5028016;28;20046;-63
2022/10/26 08:21:02;;;;;;;9.70;5.60;;;;;;;;;;5027674;28;20041;-63
2022/10/26 08:23:28;;;;;;;17.50;5.63;;;;;;;;;;5027702;28;20494;-62
2022/10/26 08:25:58;;;;;;;9.43;5.90;;;;;;;;;;5027795;28;20099;-62
2022/10/26 08:28:24;;;;;;;13.47;5.93;;;;;;;;;;5028283;28;20091;-62
2022/10/26 08:30:50;;;;;;;13.43;6.33;;;;;;;;;;5028137;28;20053;-62
2022/10/26 08:33:16;;;;;;;9.17;5.93;;;;;;;;;;5027685;28;20064;-62
2022/10/26 08:35:42;;;;;;;15.03;6.10;;;;;;;;;;5027492;28;20068;-62
2022/10/26 08:38:08;;;;;;;8.87;5.13;;;;;;;;;;5030265;28;20042;-62
2022/10/26 08:40:37;;;;;;;14.53;5.47;;;;;;;;;;5031873;28;20650;-63
2022/10/26 08:43:16;;;;;;;13.67;6.17;;;;;;;;;;5032052;28;20053;-62
2022/10/26 08:46:11;;;;;;;8.37;4.90;;;;;;;;;;5031767;28;20048;-62
2022/10/26 08:49:07;;;;;;;10.53;5.37;;;;;;;;;;5009168;28;20061;-63
2022/10/26 08:51:36;;;;;;;12.50;5.20;;;;;;;;;;5014468;28;20573;-62
2022/10/26 08:54:13;;;;;;;11.27;5.10;;;;;;;;;;5031522;28;20037;-62
2022/10/26 08:56:43;;;;;;;11.83;4.53;;;;;;;;;;5014135;28;20046;-63
2022/10/26 08:59:13;;;;;;;8.60;5.27;;;;;;;;;;5011606;28;20054;-62
2022/10/26 09:01:39;;;;;;;11.13;4.70;;;;;;;;;;5011718;28;20042;-63
2022/10/26 09:04:09;;;;;;;9.67;4.20;;;;;;;;;;5011702;28;20046;-63
2022/10/26 09:06:43;;;;;;;8.43;4.10;;;;;;;;;;5011614;28;20046;-63
2022/10/26 09:09:09;;;;;;;9.83;3.60;;;;;;;;;;5011689;28;20034;-62
2022/10/26 09:11:54;;;;;;;11.37;3.27;;;;;;;;;;5011171;28;20042;-62
2022/10/26 09:14:43;;;;;;;8.23;3.20;;;;;;;;;;5011355;28;20137;-62
2022/10/26 09:17:27;;;;;;;5.90;2.83;;;;;;;;;;4974889;28;20061;-62
2022/10/26 09:19:56;;;;;;;9.70;3.23;;;;;;;;;;5011451;28;20045;-63
2022/10/26 09:22:40;;;;;;;8.30;2.60;;;;;;;;;;5010532;28;20054;-63
2022/10/26 09:25:20;;;;;;;9.27;3.00;;;;;;;;;;5011451;28;20420;-63
2022/10/26 09:27:48;;;;;;;6.40;2.43;;;;;;;;;;5011465;28;20076;-63
2022/10/26 09:30:16;;;;;;;7.33;2.30;;;;;;;;;;5011545;28;20061;-62
2022/10/26 09:32:44;;;;;;;8.27;2.87;;;;;;;;;;5011064;28;20059;-63
2022/10/26 09:35:33;;;;;;;13.93;5.40;;;;;;;;;;5011059;28;20108;-63
2022/10/26 09:38:05;;;;;;;9.00;2.60;;;;;;;;;;5000789;28;20089;-63
2022/10/26 09:40:38;;;;;;;8.17;2.40;;;;;;;;;;5011098;28;20061;-63
2022/10/26 09:43:12;;;;;;;7.07;2.40;;;;;;;;;;5010481;28;20088;-63
2022/10/26 09:45:44;;;;;;;6.40;2.20;;;;;;;;;;5010989;28;20304;-63
2022/10/26 09:48:21;;;;;;;7.43;2.83;;;;;;;;;;5009881;28;20042;-63
2022/10/26 09:50:48;;;;;;;6.67;2.43;;;;;;;;;;5010861;28;20037;-63
2022/10/26 09:53:14;;;;;;;5.77;2.37;;;;;;;;;;5010669;28;20042;-63
2022/10/26 09:55:46;;;;;;;9.70;2.70;;;;;;;;;;5018194;28;20267;-63
2022/10/26 09:58:31;;;;;;;6.07;2.20;;;;;;;;;;5030591;28;20091;-63
2022/10/26 10:00:57;;;;;;;9.00;2.57;;;;;;;;;;5030386;28;20450;-63
2022/10/26 10:03:28;;;;;;;5.20;2.30;;;;;;;;;;5030536;28;20435;-63
2022/10/26 10:06:17;;;;;;;7.10;2.87;;;;;;;;;;5030122;28;20047;-63
2022/10/26 10:08:45;;;;;;;9.00;2.20;;;;;;;;;;5030079;28;20096;-63
2022/10/26 10:11:12;;;;;;;6.07;2.10;;;;;;;;;;5030229;28;20044;-63
2022/10/26 10:13:40;;;;;;;4.40;1.83;;;;;;;;;;5030026;28;20060;-63
2022/10/26 10:16:13;;;;;;;6.23;2.37;;;;;;;;;;5029981;28;20653;-63
2022/10/26 10:18:42;;;;;;;4.27;1.97;;;;;;;;;;5030100;28;20136;-63
2022/10/26 10:21:09;;;;;;;6.27;2.20;;;;;;;;;;5029738;28;20132;-63
2022/10/26 10:23:37;;;;;;;5.97;2.67;;;;;;;;;;5029976;28;20049;-63
2022/10/26 10:26:05;;;;;;;6.07;2.47;;;;;;;;;;5028540;28;20068;-63
2022/10/26 10:28:32;;;;;;;4.90;2.23;;;;;;;;;;5029618;28;20042;-63
2022/10/26 10:31:02;;;;;;;9.30;2.20;;;;;;;;;;5030206;28;20128;-63
2022/10/26 10:33:36;;;;;;;4.67;2.10;;;;;;;;;;5028762;28;20053;-63
2022/10/26 10:36:03;;;;;;;7.20;1.53;;;;;;;;;;5029657;28;20061;-63
2022/10/26 10:38:29;;;;;;;7.57;1.90;;;;;;;;;;5028953;28;20049;-63
2022/10/26 10:40:57;;;;;;;4.83;1.87;;;;;;;;;;5029721;28;20333;-63
2022/10/26 10:43:25;;;;;;;5.80;2.07;;;;;;;;;;5029714;28;20057;-63
2022/10/26 10:45:52;;;;;;;6.57;1.93;;;;;;;;;;5029466;28;20045;-63
2022/10/26 10:48:20;;;;;;;7.30;2.23;;;;;;;;;;5029339;28;20545;-63
2022/10/26 10:50:54;;;;;;;6.97;2.33;;;;;;;;;;5029236;28;20060;-63
2022/10/26 10:53:43;;;;;;;3.97;1.70;;;;;;;;;;5029174;28;20613;-63
2022/10/26 10:56:15;;;;;;;5.87;1.90;;;;;;;;;;5005730;28;20046;-63
2022/10/26 10:58:44;;;;;;;12.47;1.97;;;;;;;;;;5009561;28;20504;-63
2022/10/26 11:01:13;;;;;;;9.23;2.20;;;;;;;;;;5008890;28;20069;-63
2022/10/26 11:03:45;;;;;;;5.57;1.83;;;;;;;;;;5009405;28;20130;-63
2022/10/26 11:06:15;;;;;;;3.37;1.90;;;;;;;;;;5008078;28;20054;-63
2022/10/26 11:08:49;;;;;;;6.00;1.87;;;;;;;;;;5008128;28;20045;-63
2022/10/26 11:11:34;;;;;;;6.63;2.13;;;;;;;;;;5009756;28;20038;-63
2022/10/26 11:14:35;;;;;;;8.00;3.03;;;;;;;;;;5009770;28;20553;-63
2022/10/26 11:17:18;;;;;;;4.83;1.80;;;;;;;;;;4929057;29;20051;-65
2022/10/26 11:19:44;;;;;;;4.25;1.83;;;;;;;;;;5002191;28;20096;-63
2022/10/26 11:22:13;;;;;;;8.63;1.70;;;;;;;;;;5009241;28;20058;-63
2022/10/26 11:24:42;;;;;;;6.47;2.00;;;;;;;;;;5009608;28;20099;-63
2022/10/26 11:27:14;;;;;;;6.13;2.10;;;;;;;;;;5009390;28;20120;-63
2022/10/26 11:29:58;;;;;;;7.27;2.20;;;;;;;;;;5008852;28;20042;-63
2022/10/26 11:32:24;;;;;;;;;;;;;;;;;;5009977;28;20449;-63
2022/10/26 11:34:50;;;;;;;5.53;2.10;;;;;;;;;;5009403;28;19971;-63
2022/10/26 11:37:25;;;;;;;6.27;2.00;;;;;;;;;;5009340;28;20057;-63
2022/10/26 11:39:51;;;;;;;6.40;2.47;;;;;;;;;;5008953;28;20065;-63
2022/10/26 11:42:28;;;;;;;4.13;2.20;;;;;;;;;;5008720;28;20042;-63
2022/10/26 11:45:09;;;;;;;8.67;2.53;;;;;;;;;;5008759;28;20065;-63
2022/10/26 11:47:56;;;;;;;8.63;2.23;;;;;;;;;;5008841;28;20096;-63
2022/10/26 11:50:23;;;;;;;5.20;2.10;;;;;;;;;;5009072;28;20057;-63
2022/10/26 11:52:53;;;;;;;7.90;2.50;;;;;;;;;;5008915;28;20433;-63
2022/10/26 11:55:20;;;;;;;5.87;2.37;;;;;;;;;;5015146;28;20424;-63
2022/10/26 11:57:46;;;;;;;5.43;2.43;;;;;;;;;;5023870;28;20041;-63
2022/10/26 12:00:12;;;;;;;6.77;2.23;;;;;;;;;;5017401;28;20049;-63
2022/10/26 12:02:40;;;;;;;5.53;2.43;;;;;;;;;;5028817;28;20053;-63
2022/10/26 12:05:06;;;;;;;7.70;2.13;;;;;;;;;;5012484;28;20060;-63
2022/10/26 12:07:33;;;;;;;5.90;2.47;;;;;;;;;;5008515;28;20046;-63
2022/10/26 12:10:00;;;;;;;8.73;2.57;;;;;;;;;;5008234;28;20042;-63
2022/10/26 12:12:32;;;;;;;6.60;2.30;;;;;;;;;;5009700;28;20573;-63
2022/10/26 12:15:01;;;;;;;8.77;2.17;;;;;;;;;;5012252;28;20407;-63
2022/10/26 12:17:46;;;;;;;7.73;2.43;;;;;;;;;;5013193;28;20048;-63
2022/10/26 12:20:18;;;;;;;6.73;2.30;;;;;;;;;;5023834;28;20053;-63
2022/10/26 12:22:44;;;;;;;6.47;2.80;;;;;;;;;;5032431;28;20045;-63
2022/10/26 12:25:13;;;;;;;4.53;2.10;;;;;;;;;;5032605;28;20419;-63
2022/10/26 12:27:39;;;;;;;9.10;2.63;;;;;;;;;;5030909;28;20053;-63
2022/10/26 12:30:08;;;;;;;6.93;2.43;;;;;;;;;;5032062;28;20418;-63
2022/10/26 12:32:34;;;;;;;6.63;3.37;;;;;;;;;;5031567;28;20053;-63
2022/10/26 12:35:02;;;;;;;5.33;2.33;;;;;;;;;;5019651;28;20054;-63
2022/10/26 12:37:33;;;;;;;7.67;2.50;;;;;;;;;;5031161;28;20053;-63
2022/10/26 12:40:18;;;;;;;4.33;2.57;;;;;;;;;;5031517;28;20050;-64
2022/10/26 12:42:44;;;;;;;5.90;2.50;;;;;;;;;;5031846;28;20111;-63
2022/10/26 12:45:19;;;;;;;7.13;2.80;;;;;;;;;;5031314;28;20041;-63
2022/10/26 12:47:48;;;;;;;8.73;2.57;;;;;;;;;;5019259;28;20057;-63
2022/10/26 12:50:14;;;;;;;10.77;2.83;;;;;;;;;;5027533;28;20050;-63
2022/10/26 12:52:40;;;;;;;8.07;2.57;;;;;;;;;;5029390;28;20041;-63
2022/10/26 12:55:12;;;;;;;4.97;2.00;;;;;;;;;;5015049;28;20045;-63
2022/10/26 12:57:38;;;;;;;4.18;2.45;;;;;;;;;;5010811;28;20100;-63
2022/10/26 13:00:05;;;;;;;10.03;2.40;;;;;;;;;;5009864;28;20060;-63
2022/10/26 13:02:40;;;;;;;5.97;2.50;;;;;;;;;;5009743;28;20049;-63
2022/10/26 13:05:12;;;;;;;7.33;2.43;;;;;;;;;;5010149;28;20050;-63
2022/10/26 13:07:40;;;;;;;6.57;2.50;;;;;;;;;;5009751;28;20558;-63
2022/10/26 13:10:06;;;;;;;12.63;3.13;;;;;;;;;;5009218;28;20050;-63
2022/10/26 13:12:38;;;;;;;6.47;2.70;;;;;;;;;;5009735;28;20564;-63
2022/10/26 13:15:06;;;;;;;7.50;2.88;;;;;;;;;;5010862;28;20045;-63
2022/10/26 13:17:33;;;;;;;9.27;2.77;;;;;;;;;;5011055;28;20064;-63
2022/10/26 13:20:05;;;;;;;9.33;3.13;;;;;;;;;;5010310;28;20072;-63
2022/10/26 13:22:31;;;;;;;11.57;4.13;;;;;;;;;;5010836;28;20428;-63
2022/10/26 13:25:05;;;;;;;9.33;3.87;;;;;;;;;;5010084;28;20045;-63
2022/10/26 13:27:33;;;;;;;6.33;2.87;;;;;;;;;;5010988;28;20104;-63
2022/10/26 13:30:02;;;;;;;8.20;2.73;;;;;;;;;;5011302;28;20104;-63
2022/10/26 13:32:34;;;;;;;8.27;3.33;;;;;;;;;;5010842;28;20048;-63
2022/10/26 13:35:01;;;;;;;7.27;3.10;;;;;;;;;;5011008;28;20058;-63
2022/10/26 13:37:28;;;;;;;7.00;3.10;;;;;;;;;;5009520;28;20305;-63
2022/10/26 13:39:55;;;;;;;8.00;2.83;;;;;;;;;;5010694;28;20054;-63
2022/10/26 13:42:23;;;;;;;11.80;2.67;;;;;;;;;;5008968;28;20129;-64
2022/10/26 13:44:49;;;;;;;4.17;2.27;;;;;;;;;;5010312;28;20515;-63
2022/10/26 13:47:25;;;;;;;7.43;3.03;;;;;;;;;;5009059;28;20420;-63
2022/10/26 13:49:54;;;;;;;11.83;3.30;;;;;;;;;;5010630;28;20058;-63
2022/10/26 13:52:33;;;;;;;9.30;3.30;;;;;;;;;;5010743;28;20038;-63
2022/10/26 13:55:02;;;;;;;5.73;2.93;;;;;;;;;;5014339;28;20054;-63
2022/10/26 13:57:41;;;;;;;7.87;2.60;;;;;;;;;;5030904;28;20368;-63
2022/10/26 14:00:19;;;;;;;8.60;3.17;;;;;;;;;;5030523;28;20414;-63
2022/10/26 14:02:45;;;;;;;4.30;2.50;;;;;;;;;;5030452;28;20041;-63
2022/10/26 14:05:13;;;;;;;8.73;3.23;;;;;;;;;;5030283;28;20558;-63
2022/10/26 14:07:44;;;;;;;9.27;2.50;;;;;;;;;;5029485;28;20067;-63
2022/10/26 14:10:29;;;;;;;8.30;2.70;;;;;;;;;;5030302;28;20486;-63
2022/10/26 14:12:55;;;;;;;6.57;2.93;;;;;;;;;;5030179;28;20115;-63
2022/10/26 14:15:26;;;;;;;10.20;2.70;;;;;;;;;;5028404;28;20137;-63
2022/10/26 14:17:53;;;;;;;7.77;2.10;;;;;;;;;;5030129;28;20048;-63
2022/10/26 14:20:21;;;;;;;5.30;2.30;;;;;;;;;;5029618;28;20092;-63
2022/10/26 14:22:47;;;;;;;7.50;2.30;;;;;;;;;;5029261;28;20061;-63
2022/10/26 14:25:23;;;;;;;5.80;2.53;;;;;;;;;;5029919;28;20419;-63
2022/10/26 14:27:49;;;;;;;9.63;2.57;;;;;;;;;;5029799;28;20072;-63
2022/10/26 14:30:21;;;;;;;8.43;2.40;;;;;;;;;;5029707;28;20041;-63
2022/10/26 14:32:48;;;;;;;5.03;2.33;;;;;;;;;;5029096;28;20045;-63
2022/10/26 14:35:14;;;;;;;5.07;2.53;;;;;;;;;;5028595;28;20628;-63
2022/10/26 14:37:51;;;;;;;6.83;2.60;;;;;;;;;;5029277;28;20539;-63
2022/10/26 14:40:19;;;;;;;7.37;3.00;;;;;;;;;;5029263;28;20053;-63